Amanda A — WDF9562 — position and weather

sailwx.info

Track history (hours):
 
Tides and Currents Weather Stations Pressure Air Temp Water Temp Dewpoint Dewpoint Depression Visibility Wind Speed Wind Dir Waves Ship Positions

Amanda A

Owner: REC Marine LLC, Galliano, LA. More information available from US FCC via Universal Licensing System.

Last reported at 2017-Nov-12 19:03 UTC. Time now 2017-Nov-24 05:50 UTC.
Position N 29°33' W 090°25'.
Warning: this ship's position is 11 days out of date.

Length 6 m; draft 1.9 m.

Type: Tug. MMSI: 367506440.

Date/timePositionNaut miles runAvg speedWind from/ knotsBaromVisibWave heightAir tempDewpointWater temp
2017-Nov-12 19:03N 29°33' W 090°25'3 6.3
2017-Nov-12 18:39N 29°33' W 090°28'1 6.3
2017-Nov-12 18:30N 29°34' W 090°29'3 5.8
2017-Nov-12 18:00N 29°34' W 090°32'3 6.0
2017-Nov-12 17:30N 29°35' W 090°35'3 5.4
2017-Nov-12 17:01N 29°35' W 090°38'3 6.8
2017-Nov-12 16:31N 29°37' W 090°42'2 4.3
2017-Nov-12 16:00N 29°35' W 090°43'0 0.0
2017-Nov-12 15:30N 29°35' W 090°43'0 0.0
2017-Nov-12 15:00N 29°35' W 090°43'1 3.0
2017-Nov-12 14:31N 29°34' W 090°42'0 0.4
2017-Nov-12 14:01N 29°34' W 090°42'0 0.9
2017-Nov-12 13:31N 29°34' W 090°43'1 2.5
2017-Nov-12 13:01N 29°35' W 090°43'2 3.6
2017-Nov-12 12:30N 29°37' W 090°42'2 3.8
2017-Nov-12 12:00N 29°36' W 090°40'0 0.0
2017-Nov-12 11:31N 29°36' W 090°40'0 0.0
2017-Nov-12 11:00N 29°36' W 090°40'0 0.0
2017-Nov-12 10:30N 29°36' W 090°40'0 0.0
2017-Nov-12 10:00N 29°36' W 090°40'0 0.0
2017-Nov-12 09:31N 29°36' W 090°40'0 0.0
2017-Nov-12 09:01N 29°36' W 090°40'0 0.0
2017-Nov-12 08:31N 29°36' W 090°40'0 0.0
2017-Nov-12 08:01N 29°36' W 090°40'0 0.0
2017-Nov-12 07:31N 29°36' W 090°40'0 0.0
2017-Nov-12 07:01N 29°36' W 090°40'0 0.0
2017-Nov-12 06:30N 29°36' W 090°40'0 0.0
2017-Nov-12 06:00N 29°36' W 090°40'0 0.0
2017-Nov-12 05:31N 29°36' W 090°40'0 0.0
2017-Nov-12 05:01N 29°36' W 090°40'0 0.0
2017-Nov-12 04:31N 29°36' W 090°40'0 0.0
2017-Nov-12 04:00N 29°36' W 090°40'0 0.0
2017-Nov-12 03:31N 29°36' W 090°40'0 0.0
2017-Nov-12 03:00N 29°36' W 090°40'0 0.0
2017-Nov-12 02:30N 29°36' W 090°40'0 0.0
2017-Nov-12 02:00N 29°36' W 090°40'0 0.0
2017-Nov-12 01:30N 29°36' W 090°40'0 0.0
2017-Nov-12 01:00N 29°36' W 090°40'0 0.0
2017-Nov-12 00:31N 29°36' W 090°40'0 0.0
2017-Nov-12 00:00N 29°36' W 090°40'2 3.4
2017-Nov-11 23:30N 29°35' W 090°38'3 5.3
2017-Nov-11 23:00N 29°35' W 090°35'3 5.2
2017-Nov-11 22:30N 29°34' W 090°33'  
Track history (hours):
 
Tides and Currents Weather Stations Pressure Air Temp Water Temp Dewpoint Dewpoint Depression Visibility Wind Speed Wind Dir Waves Ship Positions

Amanda A

Owner: REC Marine LLC, Galliano, LA. More information available from US FCC via Universal Licensing System.

Last reported at 2017-Nov-12 19:03 UTC. Time now 2017-Nov-24 05:50 UTC.
Position N 29°33' W 090°25'.
Warning: this ship's position is 11 days out of date.

Length 6 m; draft 1.9 m.

Type: Tug. MMSI: 367506440.

Date/timePositionNaut miles runAvg speedWind from/ knotsBaromVisibWave heightAir tempDewpointWater temp
2017-Nov-12 19:03N 29°33' W 090°25'3 6.3
2017-Nov-12 18:39N 29°33' W 090°28'1 6.3
2017-Nov-12 18:30N 29°34' W 090°29'3 5.8
2017-Nov-12 18:00N 29°34' W 090°32'3 6.0
2017-Nov-12 17:30N 29°35' W 090°35'3 5.4
2017-Nov-12 17:01N 29°35' W 090°38'3 6.8
2017-Nov-12 16:31N 29°37' W 090°42'2 4.3
2017-Nov-12 16:00N 29°35' W 090°43'0 0.0
2017-Nov-12 15:30N 29°35' W 090°43'0 0.0
2017-Nov-12 15:00N 29°35' W 090°43'1 3.0
2017-Nov-12 14:31N 29°34' W 090°42'0 0.4
2017-Nov-12 14:01N 29°34' W 090°42'0 0.9
2017-Nov-12 13:31N 29°34' W 090°43'1 2.5
2017-Nov-12 13:01N 29°35' W 090°43'2 3.6
2017-Nov-12 12:30N 29°37' W 090°42'2 3.8
2017-Nov-12 12:00N 29°36' W 090°40'0 0.0
2017-Nov-12 11:31N 29°36' W 090°40'0 0.0
2017-Nov-12 11:00N 29°36' W 090°40'0 0.0
2017-Nov-12 10:30N 29°36' W 090°40'0 0.0
2017-Nov-12 10:00N 29°36' W 090°40'0 0.0
2017-Nov-12 09:31N 29°36' W 090°40'0 0.0
2017-Nov-12 09:01N 29°36' W 090°40'0 0.0
2017-Nov-12 08:31N 29°36' W 090°40'0 0.0
2017-Nov-12 08:01N 29°36' W 090°40'0 0.0
2017-Nov-12 07:31N 29°36' W 090°40'0 0.0
2017-Nov-12 07:01N 29°36' W 090°40'0 0.0
2017-Nov-12 06:30N 29°36' W 090°40'0 0.0
2017-Nov-12 06:00N 29°36' W 090°40'0 0.0
2017-Nov-12 05:31N 29°36' W 090°40'0 0.0
2017-Nov-12 05:01N 29°36' W 090°40'0 0.0
2017-Nov-12 04:31N 29°36' W 090°40'0 0.0
2017-Nov-12 04:00N 29°36' W 090°40'0 0.0
2017-Nov-12 03:31N 29°36' W 090°40'0 0.0
2017-Nov-12 03:00N 29°36' W 090°40'0 0.0
2017-Nov-12 02:30N 29°36' W 090°40'0 0.0
2017-Nov-12 02:00N 29°36' W 090°40'0 0.0
2017-Nov-12 01:30N 29°36' W 090°40'0 0.0
2017-Nov-12 01:00N 29°36' W 090°40'0 0.0
2017-Nov-12 00:31N 29°36' W 090°40'0 0.0
2017-Nov-12 00:00N 29°36' W 090°40'2 3.4
2017-Nov-11 23:30N 29°35' W 090°38'3 5.3
2017-Nov-11 23:00N 29°35' W 090°35'3 5.2
2017-Nov-11 22:30N 29°34' W 090°33'  

Dump ship's entire track history